createdAt,value
2023-11-01T00:01:17.027Z,93767.16
2023-11-01T00:09:40.692Z,93763.10
2023-11-01T00:18:05.551Z,93771.80
2023-11-01T00:26:29.623Z,93786.70
2023-11-01T00:34:58.201Z,93795.60
2023-11-01T00:43:25.302Z,93803.54
2023-11-01T00:51:49.710Z,93798.24
2023-11-01T01:00:15.652Z,93761.75
2023-11-01T01:08:41.301Z,93728.44
2023-11-01T01:17:11.066Z,93710.95
2023-11-01T01:25:36.951Z,93689.90
2023-11-01T01:34:02.956Z,93651.55
2023-11-01T01:42:27.404Z,93615.60
2023-11-01T01:50:52.245Z,93592.25
2023-11-01T01:59:19.512Z,93571.80
2023-11-01T02:07:45.476Z,93560.60
2023-11-01T02:16:10.020Z,93557.13
2023-11-01T02:24:38.144Z,93565.64
2023-11-01T02:33:03.621Z,93568.16
2023-11-01T02:41:27.481Z,93550.08
2023-11-01T02:49:52.359Z,93531.02
2023-11-01T02:58:16.960Z,93506.92
2023-11-01T03:06:42.432Z,93499.82
2023-11-01T03:15:12.456Z,93498.25
2023-11-01T03:23:36.908Z,93497.03
2023-11-01T03:32:01.278Z,93496.19
2023-11-01T03:40:25.743Z,93479.42
2023-11-01T03:48:51.358Z,93452.15
2023-11-01T03:57:17.930Z,93444.43
2023-11-01T04:05:42.844Z,93438.16
2023-11-01T04:14:08.516Z,93395.25
2023-11-01T04:22:33.370Z,93343.89
2023-11-01T04:30:57.858Z,93290.97
2023-11-01T04:39:23.110Z,93272.33
2023-11-01T04:47:48.420Z,93296.84
2023-11-01T04:56:13.216Z,93335.02
2023-11-01T05:04:39.757Z,93347.02
2023-11-01T05:13:07.341Z,93352.79
2023-11-01T05:21:32.436Z,93358.85
2023-11-01T05:29:57.449Z,93345.39
2023-11-01T05:38:23.060Z,93296.48
2023-11-01T05:46:49.068Z,93241.41
2023-11-01T05:55:19.737Z,93191.77
2023-11-01T06:03:52.309Z,93158.73
2023-11-01T06:12:17.878Z,93148.11
2023-11-01T06:20:42.423Z,93151.23
2023-11-01T06:29:07.380Z,93152.80
2023-11-01T06:37:32.293Z,93147.77
2023-11-01T06:46:00.763Z,93133.80
2023-11-01T06:54:27.431Z,93230.27
2023-11-01T07:02:53.071Z,93610.73
2023-11-01T07:11:21.203Z,93934.70
2023-11-01T07:19:45.363Z,94286.16
2023-11-01T07:28:16.453Z,94517.16
2023-11-01T07:36:41.249Z,94858.74
2023-11-01T07:45:10.395Z,95177.36
2023-11-01T07:53:36.460Z,95295.90
2023-11-01T08:02:02.366Z,95333.69
2023-11-01T08:10:28.670Z,95118.61
2023-11-01T08:18:53.624Z,94784.17
2023-11-01T08:27:18.236Z,94581.59
2023-11-01T08:35:43.083Z,94503.00
2023-11-01T08:44:09.960Z,94446.39
2023-11-01T08:52:34.003Z,94331.09
2023-11-01T09:01:01.317Z,94198.46
2023-11-01T09:09:27.409Z,94125.03
2023-11-01T09:17:52.082Z,94091.47
2023-11-01T09:26:19.384Z,94101.92
2023-11-01T09:34:43.341Z,94106.92
2023-11-01T09:43:11.875Z,94061.64
2023-11-01T09:51:37.170Z,94010.77
2023-11-01T10:00:04.681Z,93995.37
2023-11-01T10:08:30.512Z,94032.27
2023-11-01T10:16:57.374Z,94107.99
2023-11-01T10:25:25.492Z,94148.02
2023-11-01T10:33:51.740Z,94216.38
2023-11-01T10:42:18.993Z,94283.36
2023-11-01T10:50:48.774Z,94324.71
2023-11-01T10:59:57.364Z,94440.80
2023-11-01T11:08:22.528Z,94604.92
2023-11-01T11:17:08.687Z,94622.52
2023-11-01T11:25:46.425Z,94608.61
2023-11-01T11:34:20.823Z,94623.12
2023-11-01T11:42:49.664Z,94597.17
2023-11-01T11:51:12.978Z,94580.67
2023-11-01T11:59:38.824Z,94561.97
2023-11-01T12:08:02.949Z,94542.63
2023-11-01T12:16:31.346Z,94561.88
2023-11-01T12:24:57.005Z,94536.15
2023-11-01T12:33:22.420Z,94488.89
2023-11-01T12:41:46.838Z,94481.55
2023-11-01T12:50:13.439Z,94457.54
2023-11-01T12:58:39.718Z,94430.05
2023-11-01T13:07:09.252Z,94412.45
2023-11-01T13:15:35.708Z,94370.62
2023-11-01T13:23:59.207Z,94354.13
2023-11-01T13:32:24.747Z,94330.20
2023-11-01T13:40:51.116Z,94305.49
2023-11-01T13:49:16.177Z,94282.48
2023-11-01T13:57:40.491Z,94226.11
2023-11-01T14:06:05.782Z,94154.60
2023-11-01T14:14:31.378Z,94105.80
2023-11-01T14:22:56.004Z,94077.06
2023-11-01T14:31:20.773Z,94057.94
2023-11-01T14:39:45.111Z,94027.58
2023-11-01T14:48:10.177Z,94026.20
2023-11-01T14:56:35.492Z,94037.08
2023-11-01T15:05:05.259Z,94035.75
2023-11-01T15:13:29.710Z,94019.51
2023-11-01T15:21:54.939Z,94003.28
2023-11-01T15:30:20.966Z,93997.73
2023-11-01T15:38:49.197Z,94001.23
2023-11-01T15:47:13.764Z,93990.42
2023-11-01T15:55:37.585Z,93974.41
2023-11-01T16:04:02.053Z,93940.63
2023-11-01T16:12:26.895Z,93908.69
2023-11-01T16:20:51.309Z,93886.02
2023-11-01T16:29:17.587Z,93866.77
2023-11-01T16:37:44.626Z,93850.84
2023-11-01T16:46:13.843Z,93834.20
2023-11-01T16:54:40.166Z,93822.40
2023-11-01T17:03:09.905Z,93808.19
2023-11-01T17:11:39.427Z,93767.10
2023-11-01T17:20:05.181Z,93701.42
2023-11-01T17:28:37.092Z,93633.48
2023-11-01T17:37:04.710Z,93559.66
2023-11-01T17:45:33.117Z,93450.05
2023-11-01T17:53:59.391Z,93353.65
2023-11-01T18:03:17.073Z,93229.10
2023-11-01T18:11:41.181Z,93109.27
2023-11-01T18:20:14.309Z,93031.83
2023-11-01T18:28:45.891Z,92925.44
2023-11-01T18:37:12.643Z,92817.56
2023-11-01T18:45:40.819Z,92709.55
2023-11-01T18:54:06.340Z,92643.16
2023-11-01T19:02:36.166Z,92549.35
2023-11-01T19:10:59.719Z,92477.93
2023-11-01T19:19:27.254Z,92455.40
2023-11-01T19:27:53.116Z,92396.39
2023-11-01T19:36:17.453Z,92258.98
2023-11-01T19:44:45.299Z,92154.59
2023-11-01T19:53:11.953Z,92098.44
2023-11-01T20:01:39.861Z,92063.83
2023-11-01T20:10:06.171Z,92016.41
2023-11-01T20:18:32.877Z,91951.88
2023-11-01T20:27:00.100Z,91877.42
2023-11-01T20:35:26.400Z,91811.99
2023-11-01T20:43:51.249Z,91751.34
2023-11-01T20:52:15.937Z,91684.04
2023-11-01T21:00:41.692Z,91638.66
2023-11-01T21:09:10.223Z,91596.77
2023-11-01T21:17:36.298Z,91562.42
2023-11-01T21:26:01.887Z,91521.95
2023-11-01T21:34:28.209Z,91489.69
2023-11-01T21:42:56.518Z,91469.66
2023-11-01T21:51:24.037Z,91449.15
2023-11-01T21:59:48.747Z,91413.48
2023-11-01T22:08:45.488Z,91360.28
2023-11-01T22:17:18.421Z,91289.62
2023-11-01T22:25:42.786Z,91264.73
2023-11-01T22:34:07.134Z,91257.21
2023-11-01T22:42:33.135Z,91229.21
2023-11-01T22:51:00.840Z,91206.09
2023-11-01T22:59:27.901Z,91248.76
2023-11-01T23:08:00.478Z,91267.10
2023-11-01T23:16:25.641Z,91246.20
2023-11-01T23:24:51.035Z,91228.85
2023-11-01T23:33:15.886Z,91229.31
2023-11-01T23:42:10.471Z,91236.05
2023-11-01T23:50:40.958Z,91232.64
2023-11-01T23:59:07.555Z,91236.05
